Beautriton — PHQC — position and weather

sailwx.info

Track history (hours):
 
Tides and Currents Weather Stations Pressure Air Temp Water Temp Dewpoint Dewpoint Depression Visibility Wind Speed Wind Dir Waves Ship Positions

Beautriton

Last reported at 2018-Jun-15 01:45 UTC. Time now 2018-Jun-23 10:22 UTC.
Position N 34°60' W 025°57'.
Warning: this ship's position is 8 days out of date.

Length 118 m; draft 5.3 m.

Type: Cargo ship. MMSI: 246215000.

Date/timePositionNaut miles runAvg speedWind from/ knotsBaromVisibWave heightAir tempDewpointWater temp
2018-Jun-15 01:45N 34°60' W 025°57'3913.1
2018-Jun-14 22:44N 35°22' W 025°18'713.6
2018-Jun-14 22:14N 35°26' W 025°11'313.4
2018-Jun-14 22:00N 35°27' W 025°07'713.5
2018-Jun-14 21:30N 35°31' W 025°00'713.4
2018-Jun-14 21:00N 35°35' W 024°54'713.2
2018-Jun-14 20:30N 35°39' W 024°47'713.4
2018-Jun-14 20:00N 35°43' W 024°41'813.4
2018-Jun-14 19:25N 35°48' W 024°33'613.8
2018-Jun-14 19:00N 35°51' W 024°27'713.7
2018-Jun-14 18:30N 35°55' W 024°20'713.3
2018-Jun-14 18:00N 35°59' W 024°14'713.6
2018-Jun-14 17:30N 36°03' W 024°07'713.6
2018-Jun-14 17:00N 36°06' W 023°60'713.7
2018-Jun-14 16:30N 36°10' W 023°53'713.8
2018-Jun-14 15:58N 36°15' W 023°46'713.7
2018-Jun-14 15:27N 36°20' W 023°39'613.3
2018-Jun-14 15:00N 36°23' W 023°33'713.2
2018-Jun-14 14:27N 36°28' W 023°26'3013.3
2018-Jun-14 12:12N 36°45' W 022°56'1113.4
2018-Jun-14 11:25N 36°51' W 022°45'  
2018-Jun-11 16:57N 43°44' W 006°19'612.6
2018-Jun-11 16:30N 43°43' W 006°11'712.4
2018-Jun-11 15:57N 43°42' W 006°01'612.6
2018-Jun-11 15:28N 43°42' W 005°53'612.5
2018-Jun-11 15:00N 43°40' W 005°45'610.8
2018-Jun-11 14:29N 43°35' W 005°40'2 4.2
2018-Jun-11 14:00N 43°33' W 005°41'0 0.0
2018-Jun-11 13:30N 43°33' W 005°41'0 0.0
2018-Jun-11 12:44N 43°33' W 005°41'0 0.0
2018-Jun-11 06:56N 43°33' W 005°41'0 0.0
2018-Jun-11 05:20N 43°33' W 005°41'0 0.0
2018-Jun-11 04:20N 43°33' W 005°41'0 0.0
2018-Jun-11 03:38N 43°33' W 005°41'0 0.0
2018-Jun-11 03:08N 43°33' W 005°41'0 0.0
2018-Jun-11 02:57N 43°33' W 005°41'0 0.7
2018-Jun-11 02:29N 43°34' W 005°41'3 5.5
2018-Jun-11 01:59N 43°37' W 005°41'612.0
2018-Jun-11 01:29N 43°42' W 005°41'612.5
2018-Jun-11 01:00N 43°48' W 005°41'1712.5
2018-Jun-10 23:37N 44°06' W 005°42'337 9.4
2018-Jun-09 11:42N 49°36' W 003°59'413.1
2018-Jun-09 11:22N 49°38' W 003°53'513.1
2018-Jun-09 10:58N 49°40' W 003°46'713.6
2018-Jun-09 10:29N 49°44' W 003°37'713.9
2018-Jun-09 09:58N 49°47' W 003°27'714.2
2018-Jun-09 09:30N 49°51' W 003°19'714.3
2018-Jun-09 09:01N 49°54' W 003°09'714.4
2018-Jun-09 08:31N 49°58' W 002°60'714.3
2018-Jun-09 08:00N 50°00' W 002°49'714.2
2018-Jun-09 07:31N 50°03' W 002°39'813.8
2018-Jun-09 06:57N 50°05' W 002°27'713.3
2018-Jun-09 06:27N 50°07' W 002°17'612.8
2018-Jun-09 05:59N 50°08' W 002°08'612.3
2018-Jun-09 05:30N 50°10' W 001°59'611.8
2018-Jun-09 05:00N 50°11' W 001°50'611.4
2018-Jun-09 04:30N 50°13' W 001°41'511.3
2018-Jun-09 04:00N 50°14' W 001°33'611.1
2018-Jun-09 03:30N 50°16' W 001°25'611.2
2018-Jun-09 03:00N 50°17' W 001°16'611.5
2018-Jun-09 02:30N 50°19' W 001°08'612.2
2018-Jun-09 02:00N 50°20' W 000°59'612.9
2018-Jun-09 01:30N 50°22' W 000°49'713.2
2018-Jun-09 01:00N 50°24' W 000°39'713.6
2018-Jun-09 00:29N 50°26' W 000°28'714.2
2018-Jun-09 00:00N 50°28' W 000°18'714.3
2018-Jun-08 23:29N 50°30' W 000°06'814.4
2018-Jun-08 22:54N 50°32' E 000°06'614.4
2018-Jun-08 22:30N 50°34' E 000°15'714.2
2018-Jun-08 22:01N 50°35' E 000°26'713.8
2018-Jun-08 21:30N 50°39' E 000°35'713.8
2018-Jun-08 21:00N 50°43' E 000°44'713.3
2018-Jun-08 20:30N 50°47' E 000°53'713.1
2018-Jun-08 20:00N 50°50' E 001°01'712.7
2018-Jun-08 19:28N 50°55' E 001°09'612.4
2018-Jun-08 18:57N 50°59' E 001°17'512.2
2018-Jun-08 18:30N 51°02' E 001°24'713.0
2018-Jun-08 18:00N 51°06' E 001°32'713.3
2018-Jun-08 17:30N 51°11' E 001°40'713.9
2018-Jun-08 17:00N 51°18' E 001°42'714.6
2018-Jun-08 16:30N 51°25' E 001°45'714.8
2018-Jun-08 16:00N 51°32' E 001°45'715.0
2018-Jun-08 15:30N 51°40' E 001°45'714.9
2018-Jun-08 15:00N 51°47' E 001°43'612.3
2018-Jun-08 14:31N 51°51' E 001°36'612.2
2018-Jun-08 14:00N 51°56' E 001°29'510.8
2018-Jun-08 13:30N 51°55' E 001°21'4 8.7
2018-Jun-08 13:00N 51°59' E 001°17'4 7.8
2018-Jun-08 12:30N 52°01' E 001°11'2 3.6
2018-Jun-08 12:00N 52°02' E 001°10'0 0.2
2018-Jun-08 11:30N 52°02' E 001°10'0 0.0
2018-Jun-08 11:00N 52°02' E 001°10'0 0.0
2018-Jun-08 10:30N 52°02' E 001°10'0 0.0
2018-Jun-08 10:00N 52°02' E 001°10'0 0.0
2018-Jun-08 09:30N 52°02' E 001°10'0 0.0
2018-Jun-08 09:00N 52°02' E 001°10'0 0.0
2018-Jun-08 08:30N 52°02' E 001°10'0 0.0
2018-Jun-08 08:00N 52°02' E 001°10'0 0.0
2018-Jun-08 07:30N 52°02' E 001°10'0 0.0
2018-Jun-08 07:00N 52°02' E 001°10'0 0.0
2018-Jun-08 06:30N 52°02' E 001°10'0 0.0
2018-Jun-08 06:00N 52°02' E 001°10'0 0.0
2018-Jun-08 05:30N 52°02' E 001°10'0 0.0
2018-Jun-08 05:00N 52°02' E 001°10'0 0.0
2018-Jun-08 04:30N 52°02' E 001°10'0 0.0
2018-Jun-08 04:00N 52°02' E 001°10'0 0.0
2018-Jun-08 03:30N 52°02' E 001°10'0 0.0
2018-Jun-08 03:00N 52°02' E 001°10'0 0.0
2018-Jun-08 02:30N 52°02' E 001°10'0 0.0
2018-Jun-08 02:00N 52°02' E 001°10'0 0.0
2018-Jun-08 01:30N 52°02' E 001°10'0 0.0
2018-Jun-08 01:00N 52°02' E 001°10'0 0.0
2018-Jun-08 00:30N 52°02' E 001°10'0 0.0
2018-Jun-08 00:00N 52°02' E 001°10'0 0.0
2018-Jun-07 23:30N 52°02' E 001°10'0 0.0
2018-Jun-07 23:00N 52°02' E 001°10'0 0.0
2018-Jun-07 22:30N 52°02' E 001°10'0 0.0
2018-Jun-07 22:00N 52°02' E 001°10'0 0.0
2018-Jun-07 21:30N 52°02' E 001°10'0 0.0
2018-Jun-07 21:00N 52°02' E 001°10'0 0.0
2018-Jun-07 20:30N 52°02' E 001°10'0 0.0
2018-Jun-07 20:00N 52°02' E 001°10'0 0.0
2018-Jun-07 19:30N 52°02' E 001°10'0 0.0
2018-Jun-07 19:00N 52°02' E 001°10'0 0.0
2018-Jun-07 18:30N 52°02' E 001°10'0 0.0
2018-Jun-07 18:00N 52°02' E 001°10'0 0.0
2018-Jun-07 17:30N 52°02' E 001°10'0 0.0
2018-Jun-07 17:00N 52°02' E 001°10'0 0.0
2018-Jun-07 16:30N 52°02' E 001°10'0 0.0
2018-Jun-07 16:00N 52°02' E 001°10'0 0.0
2018-Jun-07 15:30N 52°02' E 001°10'0 0.0
2018-Jun-07 15:00N 52°02' E 001°10'0 0.0
2018-Jun-07 14:30N 52°02' E 001°10'0 0.0
2018-Jun-07 14:00N 52°02' E 001°10'0 0.0
2018-Jun-07 13:30N 52°02' E 001°10'0 0.0
2018-Jun-07 13:00N 52°02' E 001°10'0 0.0
2018-Jun-07 12:30N 52°02' E 001°10'0 0.0
2018-Jun-07 12:00N 52°02' E 001°10'0 0.0
2018-Jun-07 11:30N 52°02' E 001°10'0 0.0
2018-Jun-07 11:00N 52°02' E 001°10'0 0.0
2018-Jun-07 10:30N 52°02' E 001°10'0 0.0
2018-Jun-07 10:00N 52°02' E 001°10'0 0.0
2018-Jun-07 09:30N 52°02' E 001°10'0 0.0
2018-Jun-07 09:00N 52°02' E 001°10'0 0.0
2018-Jun-07 08:30N 52°02' E 001°10'0 0.0
2018-Jun-07 08:00N 52°02' E 001°10'0 0.0
2018-Jun-07 07:30N 52°02' E 001°10'0 0.0
2018-Jun-07 07:00N 52°02' E 001°10'0 0.0
2018-Jun-07 06:30N 52°02' E 001°10'0 0.0
2018-Jun-07 06:00N 52°02' E 001°10'0 0.0
2018-Jun-07 05:30N 52°02' E 001°10'0 0.0
2018-Jun-07 05:00N 52°02' E 001°10'0 0.0
2018-Jun-07 04:30N 52°02' E 001°10'0 0.0
2018-Jun-07 04:00N 52°02' E 001°10'0 0.0
2018-Jun-07 03:30N 52°02' E 001°10'0 0.0
2018-Jun-07 03:00N 52°02' E 001°10'0 0.0
2018-Jun-07 02:30N 52°02' E 001°10'0 0.0
2018-Jun-07 02:00N 52°02' E 001°10'0 0.0
2018-Jun-07 01:30N 52°02' E 001°10'0 0.0
2018-Jun-07 01:00N 52°02' E 001°10'0 0.0
2018-Jun-07 00:30N 52°02' E 001°10'0 0.0
2018-Jun-07 00:00N 52°02' E 001°10'0 0.0
2018-Jun-06 23:30N 52°02' E 001°10'0 0.0
2018-Jun-06 23:00N 52°02' E 001°10'0 0.0
2018-Jun-06 22:30N 52°02' E 001°10'0 0.0
2018-Jun-06 22:00N 52°02' E 001°10'0 0.0
2018-Jun-06 21:30N 52°02' E 001°10'0 0.0
2018-Jun-06 21:00N 52°02' E 001°10'0 0.0
2018-Jun-06 20:30N 52°02' E 001°10'0 0.0
2018-Jun-06 20:00N 52°02' E 001°10'0 0.0
2018-Jun-06 19:30N 52°02' E 001°10'0 0.0
2018-Jun-06 19:00N 52°02' E 001°10'0 0.0
2018-Jun-06 18:30N 52°02' E 001°10'0 0.0
2018-Jun-06 18:00N 52°02' E 001°10'0 0.0
2018-Jun-06 17:30N 52°02' E 001°10'0 0.0
2018-Jun-06 17:00N 52°02' E 001°10'0 0.0
2018-Jun-06 16:30N 52°02' E 001°10'0 0.0
2018-Jun-06 16:00N 52°02' E 001°10'0 0.0
2018-Jun-06 15:30N 52°02' E 001°10'0 0.0
2018-Jun-06 15:00N 52°02' E 001°10'0 0.0
2018-Jun-06 14:30N 52°02' E 001°10'0 0.0
2018-Jun-06 14:00N 52°02' E 001°10'0 0.0
2018-Jun-06 13:30N 52°02' E 001°10'0 0.0
2018-Jun-06 13:00N 52°02' E 001°09'2 3.2
2018-Jun-06 12:30N 52°01' E 001°11'4 7.9
2018-Jun-06 12:00N 51°59' E 001°17'4 8.1
2018-Jun-06 11:30N 51°55' E 001°19'612.5
2018-Jun-06 11:01N 51°57' E 001°29'3 5.1
2018-Jun-06 10:30N 51°58' E 001°33'2 3.4
2018-Jun-06 10:00N 51°56' E 001°33'2 4.8
2018-Jun-06 09:30N 51°54' E 001°34'2 4.4
2018-Jun-06 09:00N 51°52' E 001°36'3 5.2
2018-Jun-06 08:31N 51°52' E 001°40'3 6.0
2018-Jun-06 08:01N 51°51' E 001°44'611.8
2018-Jun-06 07:30N 51°50' E 001°54'612.0
2018-Jun-06 07:00N 51°52' E 002°03'612.0
2018-Jun-06 06:30N 51°54' E 002°12'612.4
2018-Jun-06 06:00N 51°55' E 002°22'612.5
2018-Jun-06 05:30N 51°55' E 002°32'612.5
2018-Jun-06 05:00N 51°55' E 002°42'612.5
2018-Jun-06 04:30N 51°54' E 002°52'612.6
2018-Jun-06 04:00N 51°52' E 003°02'611.8
2018-Jun-06 03:30N 51°49' E 003°10'612.2
2018-Jun-06 03:00N 51°43' E 003°15'611.5
2018-Jun-06 02:30N 51°39' E 003°20'611.8
2018-Jun-06 02:00N 51°34' E 003°25'510.9
2018-Jun-06 01:31N 51°29' E 003°30'5 9.9
2018-Jun-06 01:00N 51°26' E 003°36'511.0
2018-Jun-06 00:31N 51°23' E 003°43'713.2
2018-Jun-06 00:01N 51°21' E 003°54'712.9
2018-Jun-05 23:30N 51°26' E 004°01'612.1
2018-Jun-05 23:01N 51°22' E 004°09'510.2
2018-Jun-05 22:30N 51°21' E 004°16'5 9.2
2018-Jun-05 22:00N 51°17' E 004°20'0 0.0
2018-Jun-05 21:30N 51°17' E 004°20'1 1.6
2018-Jun-05 21:00N 51°16' E 004°21'1 2.8
2018-Jun-05 20:30N 51°15' E 004°22'0 0.0
2018-Jun-05 20:00N 51°15' E 004°22'0 0.0
2018-Jun-05 19:30N 51°15' E 004°22'0 0.0
2018-Jun-05 19:00N 51°15' E 004°22'0 0.0
2018-Jun-05 18:29N 51°15' E 004°22'0 0.0
2018-Jun-05 17:59N 51°15' E 004°22'0 0.0
2018-Jun-05 17:29N 51°15' E 004°22'0 0.0
2018-Jun-05 16:59N 51°15' E 004°22'0 0.0
2018-Jun-05 16:29N 51°15' E 004°22'0 0.0
2018-Jun-05 15:59N 51°15' E 004°22'0 0.0
2018-Jun-05 15:29N 51°15' E 004°22'0 0.0
2018-Jun-05 14:59N 51°15' E 004°22'0 0.0
2018-Jun-05 14:29N 51°15' E 004°22'0 0.0
2018-Jun-05 13:59N 51°15' E 004°22'0 0.0
2018-Jun-05 13:29N 51°15' E 004°22'0 0.0
2018-Jun-05 12:59N 51°15' E 004°22'0 0.0
2018-Jun-05 12:29N 51°15' E 004°22'0 0.0
2018-Jun-05 11:59N 51°15' E 004°22'0 0.0
2018-Jun-05 11:29N 51°15' E 004°22'0 0.0
2018-Jun-05 10:59N 51°15' E 004°22'0 0.0
2018-Jun-05 10:29N 51°15' E 004°22'0 0.0
2018-Jun-05 09:59N 51°15' E 004°22'0 0.0
2018-Jun-05 09:29N 51°15' E 004°22'0 0.0
2018-Jun-05 08:59N 51°15' E 004°22'0 0.0
2018-Jun-05 08:29N 51°15' E 004°22'0 0.0
2018-Jun-05 07:59N 51°15' E 004°22'0 0.0
2018-Jun-05 07:29N 51°15' E 004°22'0 0.0
2018-Jun-05 06:59N 51°15' E 004°22'0 0.0
2018-Jun-05 06:29N 51°15' E 004°22'0 0.0
2018-Jun-05 05:59N 51°15' E 004°22'0 0.0
2018-Jun-05 05:29N 51°15' E 004°22'0 0.0
2018-Jun-05 04:59N 51°15' E 004°22'0 0.0
2018-Jun-05 04:29N 51°15' E 004°22'0 0.0
2018-Jun-05 03:59N 51°15' E 004°22'0 0.0
2018-Jun-05 03:29N 51°15' E 004°22'0 0.0
2018-Jun-05 02:59N 51°15' E 004°22'0 0.0
2018-Jun-05 02:29N 51°15' E 004°22'0 0.0
2018-Jun-05 01:59N 51°15' E 004°22'  
Track history (hours):
 
Tides and Currents Weather Stations Pressure Air Temp Water Temp Dewpoint Dewpoint Depression Visibility Wind Speed Wind Dir Waves Ship Positions

Beautriton

Last reported at 2018-Jun-15 01:45 UTC. Time now 2018-Jun-23 10:22 UTC.
Position N 34°60' W 025°57'.
Warning: this ship's position is 8 days out of date.

Length 118 m; draft 5.3 m.

Type: Cargo ship. MMSI: 246215000.

Date/timePositionNaut miles runAvg speedWind from/ knotsBaromVisibWave heightAir tempDewpointWater temp
2018-Jun-15 01:45N 34°60' W 025°57'3913.1
2018-Jun-14 22:44N 35°22' W 025°18'713.6
2018-Jun-14 22:14N 35°26' W 025°11'313.4
2018-Jun-14 22:00N 35°27' W 025°07'713.5
2018-Jun-14 21:30N 35°31' W 025°00'713.4
2018-Jun-14 21:00N 35°35' W 024°54'713.2
2018-Jun-14 20:30N 35°39' W 024°47'713.4
2018-Jun-14 20:00N 35°43' W 024°41'813.4
2018-Jun-14 19:25N 35°48' W 024°33'613.8
2018-Jun-14 19:00N 35°51' W 024°27'713.7
2018-Jun-14 18:30N 35°55' W 024°20'713.3
2018-Jun-14 18:00N 35°59' W 024°14'713.6
2018-Jun-14 17:30N 36°03' W 024°07'713.6
2018-Jun-14 17:00N 36°06' W 023°60'713.7
2018-Jun-14 16:30N 36°10' W 023°53'713.8
2018-Jun-14 15:58N 36°15' W 023°46'713.7
2018-Jun-14 15:27N 36°20' W 023°39'613.3
2018-Jun-14 15:00N 36°23' W 023°33'713.2
2018-Jun-14 14:27N 36°28' W 023°26'3013.3
2018-Jun-14 12:12N 36°45' W 022°56'1113.4
2018-Jun-14 11:25N 36°51' W 022°45'  
2018-Jun-11 16:57N 43°44' W 006°19'612.6
2018-Jun-11 16:30N 43°43' W 006°11'712.4
2018-Jun-11 15:57N 43°42' W 006°01'612.6
2018-Jun-11 15:28N 43°42' W 005°53'612.5
2018-Jun-11 15:00N 43°40' W 005°45'610.8
2018-Jun-11 14:29N 43°35' W 005°40'2 4.2
2018-Jun-11 14:00N 43°33' W 005°41'0 0.0
2018-Jun-11 13:30N 43°33' W 005°41'0 0.0
2018-Jun-11 12:44N 43°33' W 005°41'0 0.0
2018-Jun-11 06:56N 43°33' W 005°41'0 0.0
2018-Jun-11 05:20N 43°33' W 005°41'0 0.0
2018-Jun-11 04:20N 43°33' W 005°41'0 0.0
2018-Jun-11 03:38N 43°33' W 005°41'0 0.0
2018-Jun-11 03:08N 43°33' W 005°41'0 0.0
2018-Jun-11 02:57N 43°33' W 005°41'0 0.7
2018-Jun-11 02:29N 43°34' W 005°41'3 5.5
2018-Jun-11 01:59N 43°37' W 005°41'612.0
2018-Jun-11 01:29N 43°42' W 005°41'612.5
2018-Jun-11 01:00N 43°48' W 005°41'1712.5
2018-Jun-10 23:37N 44°06' W 005°42'337 9.4
2018-Jun-09 11:42N 49°36' W 003°59'413.1
2018-Jun-09 11:22N 49°38' W 003°53'513.1
2018-Jun-09 10:58N 49°40' W 003°46'713.6
2018-Jun-09 10:29N 49°44' W 003°37'713.9
2018-Jun-09 09:58N 49°47' W 003°27'714.2
2018-Jun-09 09:30N 49°51' W 003°19'714.3
2018-Jun-09 09:01N 49°54' W 003°09'714.4
2018-Jun-09 08:31N 49°58' W 002°60'714.3
2018-Jun-09 08:00N 50°00' W 002°49'714.2
2018-Jun-09 07:31N 50°03' W 002°39'813.8
2018-Jun-09 06:57N 50°05' W 002°27'713.3
2018-Jun-09 06:27N 50°07' W 002°17'612.8
2018-Jun-09 05:59N 50°08' W 002°08'612.3
2018-Jun-09 05:30N 50°10' W 001°59'611.8
2018-Jun-09 05:00N 50°11' W 001°50'611.4
2018-Jun-09 04:30N 50°13' W 001°41'511.3
2018-Jun-09 04:00N 50°14' W 001°33'611.1
2018-Jun-09 03:30N 50°16' W 001°25'611.2
2018-Jun-09 03:00N 50°17' W 001°16'611.5
2018-Jun-09 02:30N 50°19' W 001°08'612.2
2018-Jun-09 02:00N 50°20' W 000°59'612.9
2018-Jun-09 01:30N 50°22' W 000°49'713.2
2018-Jun-09 01:00N 50°24' W 000°39'713.6
2018-Jun-09 00:29N 50°26' W 000°28'714.2
2018-Jun-09 00:00N 50°28' W 000°18'714.3
2018-Jun-08 23:29N 50°30' W 000°06'814.4
2018-Jun-08 22:54N 50°32' E 000°06'614.4
2018-Jun-08 22:30N 50°34' E 000°15'714.2
2018-Jun-08 22:01N 50°35' E 000°26'713.8
2018-Jun-08 21:30N 50°39' E 000°35'713.8
2018-Jun-08 21:00N 50°43' E 000°44'713.3
2018-Jun-08 20:30N 50°47' E 000°53'713.1
2018-Jun-08 20:00N 50°50' E 001°01'712.7
2018-Jun-08 19:28N 50°55' E 001°09'612.4
2018-Jun-08 18:57N 50°59' E 001°17'512.2
2018-Jun-08 18:30N 51°02' E 001°24'713.0
2018-Jun-08 18:00N 51°06' E 001°32'713.3
2018-Jun-08 17:30N 51°11' E 001°40'713.9
2018-Jun-08 17:00N 51°18' E 001°42'714.6
2018-Jun-08 16:30N 51°25' E 001°45'714.8
2018-Jun-08 16:00N 51°32' E 001°45'715.0
2018-Jun-08 15:30N 51°40' E 001°45'714.9
2018-Jun-08 15:00N 51°47' E 001°43'612.3
2018-Jun-08 14:31N 51°51' E 001°36'612.2
2018-Jun-08 14:00N 51°56' E 001°29'510.8
2018-Jun-08 13:30N 51°55' E 001°21'4 8.7
2018-Jun-08 13:00N 51°59' E 001°17'4 7.8
2018-Jun-08 12:30N 52°01' E 001°11'2 3.6
2018-Jun-08 12:00N 52°02' E 001°10'0 0.2
2018-Jun-08 11:30N 52°02' E 001°10'0 0.0
2018-Jun-08 11:00N 52°02' E 001°10'0 0.0
2018-Jun-08 10:30N 52°02' E 001°10'0 0.0
2018-Jun-08 10:00N 52°02' E 001°10'0 0.0
2018-Jun-08 09:30N 52°02' E 001°10'0 0.0
2018-Jun-08 09:00N 52°02' E 001°10'0 0.0
2018-Jun-08 08:30N 52°02' E 001°10'0 0.0
2018-Jun-08 08:00N 52°02' E 001°10'0 0.0
2018-Jun-08 07:30N 52°02' E 001°10'0 0.0
2018-Jun-08 07:00N 52°02' E 001°10'0 0.0
2018-Jun-08 06:30N 52°02' E 001°10'0 0.0
2018-Jun-08 06:00N 52°02' E 001°10'0 0.0
2018-Jun-08 05:30N 52°02' E 001°10'0 0.0
2018-Jun-08 05:00N 52°02' E 001°10'0 0.0
2018-Jun-08 04:30N 52°02' E 001°10'0 0.0
2018-Jun-08 04:00N 52°02' E 001°10'0 0.0
2018-Jun-08 03:30N 52°02' E 001°10'0 0.0
2018-Jun-08 03:00N 52°02' E 001°10'0 0.0
2018-Jun-08 02:30N 52°02' E 001°10'0 0.0
2018-Jun-08 02:00N 52°02' E 001°10'0 0.0
2018-Jun-08 01:30N 52°02' E 001°10'0 0.0
2018-Jun-08 01:00N 52°02' E 001°10'0 0.0
2018-Jun-08 00:30N 52°02' E 001°10'0 0.0
2018-Jun-08 00:00N 52°02' E 001°10'0 0.0
2018-Jun-07 23:30N 52°02' E 001°10'0 0.0
2018-Jun-07 23:00N 52°02' E 001°10'0 0.0
2018-Jun-07 22:30N 52°02' E 001°10'0 0.0
2018-Jun-07 22:00N 52°02' E 001°10'0 0.0
2018-Jun-07 21:30N 52°02' E 001°10'0 0.0
2018-Jun-07 21:00N 52°02' E 001°10'0 0.0
2018-Jun-07 20:30N 52°02' E 001°10'0 0.0
2018-Jun-07 20:00N 52°02' E 001°10'0 0.0
2018-Jun-07 19:30N 52°02' E 001°10'0 0.0
2018-Jun-07 19:00N 52°02' E 001°10'0 0.0
2018-Jun-07 18:30N 52°02' E 001°10'0 0.0
2018-Jun-07 18:00N 52°02' E 001°10'0 0.0
2018-Jun-07 17:30N 52°02' E 001°10'0 0.0
2018-Jun-07 17:00N 52°02' E 001°10'0 0.0
2018-Jun-07 16:30N 52°02' E 001°10'0 0.0
2018-Jun-07 16:00N 52°02' E 001°10'0 0.0
2018-Jun-07 15:30N 52°02' E 001°10'0 0.0
2018-Jun-07 15:00N 52°02' E 001°10'0 0.0
2018-Jun-07 14:30N 52°02' E 001°10'0 0.0
2018-Jun-07 14:00N 52°02' E 001°10'0 0.0
2018-Jun-07 13:30N 52°02' E 001°10'0 0.0
2018-Jun-07 13:00N 52°02' E 001°10'0 0.0
2018-Jun-07 12:30N 52°02' E 001°10'0 0.0
2018-Jun-07 12:00N 52°02' E 001°10'0 0.0
2018-Jun-07 11:30N 52°02' E 001°10'0 0.0
2018-Jun-07 11:00N 52°02' E 001°10'0 0.0
2018-Jun-07 10:30N 52°02' E 001°10'0 0.0
2018-Jun-07 10:00N 52°02' E 001°10'0 0.0
2018-Jun-07 09:30N 52°02' E 001°10'0 0.0
2018-Jun-07 09:00N 52°02' E 001°10'0 0.0
2018-Jun-07 08:30N 52°02' E 001°10'0 0.0
2018-Jun-07 08:00N 52°02' E 001°10'0 0.0
2018-Jun-07 07:30N 52°02' E 001°10'0 0.0
2018-Jun-07 07:00N 52°02' E 001°10'0 0.0
2018-Jun-07 06:30N 52°02' E 001°10'0 0.0
2018-Jun-07 06:00N 52°02' E 001°10'0 0.0
2018-Jun-07 05:30N 52°02' E 001°10'0 0.0
2018-Jun-07 05:00N 52°02' E 001°10'0 0.0
2018-Jun-07 04:30N 52°02' E 001°10'0 0.0
2018-Jun-07 04:00N 52°02' E 001°10'0 0.0
2018-Jun-07 03:30N 52°02' E 001°10'0 0.0
2018-Jun-07 03:00N 52°02' E 001°10'0 0.0
2018-Jun-07 02:30N 52°02' E 001°10'0 0.0
2018-Jun-07 02:00N 52°02' E 001°10'0 0.0
2018-Jun-07 01:30N 52°02' E 001°10'0 0.0
2018-Jun-07 01:00N 52°02' E 001°10'0 0.0
2018-Jun-07 00:30N 52°02' E 001°10'0 0.0
2018-Jun-07 00:00N 52°02' E 001°10'0 0.0
2018-Jun-06 23:30N 52°02' E 001°10'0 0.0
2018-Jun-06 23:00N 52°02' E 001°10'0 0.0
2018-Jun-06 22:30N 52°02' E 001°10'0 0.0
2018-Jun-06 22:00N 52°02' E 001°10'0 0.0
2018-Jun-06 21:30N 52°02' E 001°10'0 0.0
2018-Jun-06 21:00N 52°02' E 001°10'0 0.0
2018-Jun-06 20:30N 52°02' E 001°10'0 0.0
2018-Jun-06 20:00N 52°02' E 001°10'0 0.0
2018-Jun-06 19:30N 52°02' E 001°10'0 0.0
2018-Jun-06 19:00N 52°02' E 001°10'0 0.0
2018-Jun-06 18:30N 52°02' E 001°10'0 0.0
2018-Jun-06 18:00N 52°02' E 001°10'0 0.0
2018-Jun-06 17:30N 52°02' E 001°10'0 0.0
2018-Jun-06 17:00N 52°02' E 001°10'0 0.0
2018-Jun-06 16:30N 52°02' E 001°10'0 0.0
2018-Jun-06 16:00N 52°02' E 001°10'0 0.0
2018-Jun-06 15:30N 52°02' E 001°10'0 0.0
2018-Jun-06 15:00N 52°02' E 001°10'0 0.0
2018-Jun-06 14:30N 52°02' E 001°10'0 0.0
2018-Jun-06 14:00N 52°02' E 001°10'0 0.0
2018-Jun-06 13:30N 52°02' E 001°10'0 0.0
2018-Jun-06 13:00N 52°02' E 001°09'2 3.2
2018-Jun-06 12:30N 52°01' E 001°11'4 7.9
2018-Jun-06 12:00N 51°59' E 001°17'4 8.1
2018-Jun-06 11:30N 51°55' E 001°19'612.5
2018-Jun-06 11:01N 51°57' E 001°29'3 5.1
2018-Jun-06 10:30N 51°58' E 001°33'2 3.4
2018-Jun-06 10:00N 51°56' E 001°33'2 4.8
2018-Jun-06 09:30N 51°54' E 001°34'2 4.4
2018-Jun-06 09:00N 51°52' E 001°36'3 5.2
2018-Jun-06 08:31N 51°52' E 001°40'3 6.0
2018-Jun-06 08:01N 51°51' E 001°44'611.8
2018-Jun-06 07:30N 51°50' E 001°54'612.0
2018-Jun-06 07:00N 51°52' E 002°03'612.0
2018-Jun-06 06:30N 51°54' E 002°12'612.4
2018-Jun-06 06:00N 51°55' E 002°22'612.5
2018-Jun-06 05:30N 51°55' E 002°32'612.5
2018-Jun-06 05:00N 51°55' E 002°42'612.5
2018-Jun-06 04:30N 51°54' E 002°52'612.6
2018-Jun-06 04:00N 51°52' E 003°02'611.8
2018-Jun-06 03:30N 51°49' E 003°10'612.2
2018-Jun-06 03:00N 51°43' E 003°15'611.5
2018-Jun-06 02:30N 51°39' E 003°20'611.8
2018-Jun-06 02:00N 51°34' E 003°25'510.9
2018-Jun-06 01:31N 51°29' E 003°30'5 9.9
2018-Jun-06 01:00N 51°26' E 003°36'511.0
2018-Jun-06 00:31N 51°23' E 003°43'713.2
2018-Jun-06 00:01N 51°21' E 003°54'712.9
2018-Jun-05 23:30N 51°26' E 004°01'612.1
2018-Jun-05 23:01N 51°22' E 004°09'510.2
2018-Jun-05 22:30N 51°21' E 004°16'5 9.2
2018-Jun-05 22:00N 51°17' E 004°20'0 0.0
2018-Jun-05 21:30N 51°17' E 004°20'1 1.6
2018-Jun-05 21:00N 51°16' E 004°21'1 2.8
2018-Jun-05 20:30N 51°15' E 004°22'0 0.0
2018-Jun-05 20:00N 51°15' E 004°22'0 0.0
2018-Jun-05 19:30N 51°15' E 004°22'0 0.0
2018-Jun-05 19:00N 51°15' E 004°22'0 0.0
2018-Jun-05 18:29N 51°15' E 004°22'0 0.0
2018-Jun-05 17:59N 51°15' E 004°22'0 0.0
2018-Jun-05 17:29N 51°15' E 004°22'0 0.0
2018-Jun-05 16:59N 51°15' E 004°22'0 0.0
2018-Jun-05 16:29N 51°15' E 004°22'0 0.0
2018-Jun-05 15:59N 51°15' E 004°22'0 0.0
2018-Jun-05 15:29N 51°15' E 004°22'0 0.0
2018-Jun-05 14:59N 51°15' E 004°22'0 0.0
2018-Jun-05 14:29N 51°15' E 004°22'0 0.0
2018-Jun-05 13:59N 51°15' E 004°22'0 0.0
2018-Jun-05 13:29N 51°15' E 004°22'0 0.0
2018-Jun-05 12:59N 51°15' E 004°22'0 0.0
2018-Jun-05 12:29N 51°15' E 004°22'0 0.0
2018-Jun-05 11:59N 51°15' E 004°22'0 0.0
2018-Jun-05 11:29N 51°15' E 004°22'0 0.0
2018-Jun-05 10:59N 51°15' E 004°22'0 0.0
2018-Jun-05 10:29N 51°15' E 004°22'0 0.0
2018-Jun-05 09:59N 51°15' E 004°22'0 0.0
2018-Jun-05 09:29N 51°15' E 004°22'0 0.0
2018-Jun-05 08:59N 51°15' E 004°22'0 0.0
2018-Jun-05 08:29N 51°15' E 004°22'0 0.0
2018-Jun-05 07:59N 51°15' E 004°22'0 0.0
2018-Jun-05 07:29N 51°15' E 004°22'0 0.0
2018-Jun-05 06:59N 51°15' E 004°22'0 0.0
2018-Jun-05 06:29N 51°15' E 004°22'0 0.0
2018-Jun-05 05:59N 51°15' E 004°22'0 0.0
2018-Jun-05 05:29N 51°15' E 004°22'0 0.0
2018-Jun-05 04:59N 51°15' E 004°22'0 0.0
2018-Jun-05 04:29N 51°15' E 004°22'0 0.0
2018-Jun-05 03:59N 51°15' E 004°22'0 0.0
2018-Jun-05 03:29N 51°15' E 004°22'0 0.0
2018-Jun-05 02:59N 51°15' E 004°22'0 0.0
2018-Jun-05 02:29N 51°15' E 004°22'0 0.0
2018-Jun-05 01:59N 51°15' E 004°22'  

Dump ship's entire track history